createdAt,value
2024-01-27T00:00:52.299Z,3.38
2024-01-27T00:03:19.381Z,3.37
2024-01-27T00:05:47.819Z,3.32
2024-01-27T00:08:14.955Z,3.29
2024-01-27T00:10:42.075Z,3.24
2024-01-27T00:13:09.036Z,3.21
2024-01-27T00:15:36.141Z,3.18
2024-01-27T00:18:03.588Z,3.09
2024-01-27T00:20:30.627Z,3.05
2024-01-27T00:22:59.030Z,3.06
2024-01-27T00:25:25.996Z,3.07
2024-01-27T00:27:53.119Z,3.07
2024-01-27T00:30:20.183Z,3.06
2024-01-27T00:32:47.369Z,3.04
2024-01-27T00:35:15.982Z,3.00
2024-01-27T00:37:43.025Z,2.99
2024-01-27T00:40:12.640Z,2.96
2024-01-27T00:42:39.808Z,2.96
2024-01-27T00:45:07.824Z,2.95
2024-01-27T00:47:35.705Z,2.97
2024-01-27T00:50:02.847Z,2.97
2024-01-27T00:52:29.824Z,2.97
2024-01-27T00:54:56.755Z,2.91
2024-01-27T00:57:25.164Z,2.92
2024-01-27T00:59:52.159Z,2.93
2024-01-27T01:02:19.125Z,2.96
2024-01-27T01:04:46.275Z,2.94
2024-01-27T01:07:13.252Z,2.88
2024-01-27T01:09:40.279Z,2.79
2024-01-27T01:12:07.908Z,2.73
2024-01-27T01:14:36.468Z,2.73
2024-01-27T01:17:04.183Z,2.69
2024-01-27T01:19:31.396Z,2.65
2024-01-27T01:21:58.413Z,2.64
2024-01-27T01:24:25.525Z,2.65
2024-01-27T01:26:52.661Z,2.64
2024-01-27T01:29:19.658Z,2.70
2024-01-27T01:31:48.013Z,2.65
2024-01-27T01:34:15.400Z,2.63
2024-01-27T01:36:42.551Z,2.60
2024-01-27T01:39:11.795Z,2.55
2024-01-27T01:41:38.862Z,2.57
2024-01-27T01:44:06.097Z,2.62
2024-01-27T01:46:33.425Z,2.61
2024-01-27T01:49:02.208Z,2.63
2024-01-27T01:51:29.586Z,2.67
2024-01-27T01:54:00.248Z,2.56
2024-01-27T01:56:28.072Z,2.51
2024-01-27T01:58:55.568Z,2.48
2024-01-27T02:01:22.738Z,2.53
2024-01-27T02:03:53.744Z,2.57
2024-01-27T02:06:22.550Z,2.58
2024-01-27T02:08:49.855Z,2.61
2024-01-27T02:11:17.031Z,2.65
2024-01-27T02:13:44.631Z,2.69
2024-01-27T02:16:11.730Z,2.71
2024-01-27T02:18:38.909Z,2.75
2024-01-27T02:21:06.138Z,2.75
2024-01-27T02:23:34.534Z,2.72
2024-01-27T02:26:03.046Z,2.68
2024-01-27T02:28:33.236Z,2.61
2024-01-27T02:31:03.739Z,2.59
2024-01-27T02:33:31.181Z,2.58
2024-01-27T02:35:58.362Z,2.56
2024-01-27T02:38:25.374Z,2.54
2024-01-27T02:40:52.495Z,2.52
2024-01-27T02:43:20.885Z,2.52
2024-01-27T02:45:47.843Z,2.50
2024-01-27T02:48:15.018Z,2.49
2024-01-27T02:50:42.124Z,2.44
2024-01-27T02:53:09.121Z,2.42
2024-01-27T02:55:36.158Z,2.38
2024-01-27T02:58:03.270Z,2.39
2024-01-27T03:00:31.757Z,2.39
2024-01-27T03:02:59.758Z,2.39
2024-01-27T03:05:27.029Z,2.40
2024-01-27T03:07:54.074Z,2.40
2024-01-27T03:10:21.119Z,2.39
2024-01-27T03:12:48.127Z,2.39
2024-01-27T03:15:15.386Z,2.43
2024-01-27T03:17:43.851Z,2.46
2024-01-27T03:20:11.977Z,2.48
2024-01-27T03:22:39.004Z,2.47
2024-01-27T03:25:07.080Z,2.51
2024-01-27T03:27:34.197Z,2.53
2024-01-27T03:30:03.099Z,2.54
2024-01-27T03:32:32.875Z,2.55
2024-01-27T03:35:01.440Z,2.54
2024-01-27T03:37:28.535Z,2.54
2024-01-27T03:39:55.549Z,2.54
2024-01-27T03:42:22.814Z,2.52
2024-01-27T03:44:49.902Z,2.49
2024-01-27T03:47:17.063Z,2.50
2024-01-27T03:49:44.403Z,2.48
2024-01-27T03:52:12.956Z,2.48
2024-01-27T03:54:40.334Z,2.48
2024-01-27T03:57:07.567Z,2.41
2024-01-27T03:59:34.651Z,2.40
2024-01-27T04:02:01.666Z,2.39
2024-01-27T04:04:28.865Z,2.36
2024-01-27T04:06:55.971Z,2.31
2024-01-27T04:09:25.144Z,2.31
2024-01-27T04:11:52.568Z,2.33
2024-01-27T04:14:19.584Z,2.34
2024-01-27T04:16:46.963Z,2.36
2024-01-27T04:19:14.105Z,2.37
2024-01-27T04:21:41.220Z,2.39
2024-01-27T04:24:08.404Z,2.42
2024-01-27T04:26:36.797Z,2.44
2024-01-27T04:29:03.806Z,2.45
2024-01-27T04:31:32.487Z,2.46
2024-01-27T04:33:59.739Z,2.49
2024-01-27T04:36:28.032Z,2.46
2024-01-27T04:38:55.114Z,2.46
2024-01-27T04:41:22.314Z,2.46
2024-01-27T04:43:51.271Z,2.48
2024-01-27T04:46:18.325Z,2.43
2024-01-27T04:48:45.543Z,2.45
2024-01-27T04:51:12.789Z,2.42
2024-01-27T04:53:39.730Z,2.39
2024-01-27T04:56:10.938Z,2.38
2024-01-27T04:58:38.276Z,2.34
2024-01-27T05:01:07.781Z,2.33
2024-01-27T05:03:35.048Z,2.33
2024-01-27T05:06:02.275Z,2.27
2024-01-27T05:08:29.341Z,2.24
2024-01-27T05:10:59.200Z,2.23
2024-01-27T05:13:26.478Z,2.25
2024-01-27T05:15:53.540Z,2.31
2024-01-27T05:18:22.076Z,2.33
2024-01-27T05:20:49.191Z,2.38
2024-01-27T05:23:16.161Z,2.46
2024-01-27T05:25:43.143Z,2.46
2024-01-27T05:28:10.149Z,2.54
2024-01-27T05:30:37.187Z,2.61
2024-01-27T05:33:05.244Z,2.59
2024-01-27T05:35:33.702Z,2.60
2024-01-27T05:38:00.677Z,2.62
2024-01-27T05:40:27.823Z,2.64
2024-01-27T05:42:55.904Z,2.65
2024-01-27T05:45:24.074Z,2.64
2024-01-27T05:47:51.897Z,2.65
2024-01-27T05:50:19.079Z,2.73
2024-01-27T05:52:47.423Z,2.77
2024-01-27T05:55:14.470Z,2.78
2024-01-27T05:57:41.801Z,2.79
2024-01-27T06:00:11.001Z,2.81
2024-01-27T06:02:38.102Z,2.78
2024-01-27T06:05:05.830Z,2.79
2024-01-27T06:07:32.945Z,2.81
2024-01-27T06:10:01.367Z,2.88
2024-01-27T06:12:28.464Z,2.85
2024-01-27T06:14:55.550Z,2.87
2024-01-27T06:17:22.751Z,2.88
2024-01-27T06:19:49.939Z,2.89
2024-01-27T06:22:17.031Z,2.85
2024-01-27T06:24:45.031Z,2.88
2024-01-27T06:27:13.517Z,2.92
2024-01-27T06:29:41.726Z,2.97
2024-01-27T06:32:11.541Z,2.99
2024-01-27T06:34:40.674Z,3.03
2024-01-27T06:37:07.689Z,3.06
2024-01-27T06:39:34.677Z,3.10
2024-01-27T06:42:01.726Z,3.13
2024-01-27T06:44:30.490Z,3.15
2024-01-27T06:46:57.474Z,3.16
2024-01-27T06:49:24.654Z,3.19
2024-01-27T06:51:51.685Z,3.23
2024-01-27T06:54:18.799Z,3.23
2024-01-27T06:56:45.877Z,3.26
2024-01-27T06:59:13.502Z,3.34
2024-01-27T07:01:46.907Z,3.42
2024-01-27T07:04:14.521Z,3.45
2024-01-27T07:06:41.917Z,3.49
2024-01-27T07:09:10.457Z,3.54
2024-01-27T07:11:37.776Z,3.57
2024-01-27T07:14:04.919Z,3.62
2024-01-27T07:16:33.548Z,3.63
2024-01-27T07:19:02.147Z,3.63
2024-01-27T07:21:30.372Z,3.68
2024-01-27T07:23:57.390Z,3.78
2024-01-27T07:26:24.479Z,3.88
2024-01-27T07:28:51.459Z,4.03
2024-01-27T07:31:18.698Z,4.04
2024-01-27T07:33:45.924Z,3.99
2024-01-27T07:36:14.494Z,4.00
2024-01-27T07:38:41.522Z,3.97
2024-01-27T07:41:08.524Z,3.97
2024-01-27T07:43:35.510Z,3.95
2024-01-27T07:46:02.673Z,3.96
2024-01-27T07:48:29.899Z,3.93
2024-01-27T07:50:58.086Z,3.87
2024-01-27T07:53:26.562Z,3.82
2024-01-27T07:55:55.160Z,3.80
2024-01-27T07:58:22.169Z,3.81
2024-01-27T08:00:51.881Z,3.78
2024-01-27T08:03:19.122Z,3.77
2024-01-27T08:05:46.217Z,3.72
2024-01-27T08:08:13.354Z,3.72
2024-01-27T08:10:42.306Z,3.68
2024-01-27T08:13:09.344Z,3.69
2024-01-27T08:15:36.392Z,3.69
2024-01-27T08:18:03.650Z,3.68
2024-01-27T08:20:30.793Z,3.63
2024-01-27T08:22:58.007Z,3.61
2024-01-27T08:25:24.990Z,3.56
2024-01-27T08:27:53.385Z,3.55
2024-01-27T08:30:20.629Z,3.53
2024-01-27T08:32:47.667Z,3.54
2024-01-27T08:35:14.963Z,3.56
2024-01-27T08:37:42.029Z,3.51
2024-01-27T08:40:09.847Z,3.54
2024-01-27T08:42:36.843Z,3.54
2024-01-27T08:45:05.998Z,3.60
2024-01-27T08:47:33.102Z,3.63
2024-01-27T08:50:00.610Z,3.68
2024-01-27T08:52:27.685Z,3.75
2024-01-27T08:54:54.644Z,3.82
2024-01-27T08:57:21.638Z,3.85
2024-01-27T08:59:48.785Z,3.88
2024-01-27T09:02:17.130Z,3.91
2024-01-27T09:04:44.275Z,3.94
2024-01-27T09:07:11.347Z,3.98
2024-01-27T09:09:40.092Z,4.02
2024-01-27T09:12:07.869Z,4.04
2024-01-27T09:14:34.958Z,4.01
2024-01-27T09:17:02.056Z,4.01
2024-01-27T09:19:30.477Z,4.01
2024-01-27T09:21:57.492Z,3.98
2024-01-27T09:24:24.775Z,3.94
2024-01-27T09:26:52.568Z,3.92
2024-01-27T09:29:20.764Z,3.94
2024-01-27T09:31:47.791Z,3.90
2024-01-27T09:34:14.941Z,3.85
2024-01-27T09:36:43.390Z,3.87
2024-01-27T09:39:10.565Z,3.86
2024-01-27T09:41:38.756Z,3.87
2024-01-27T09:44:06.304Z,3.89
2024-01-27T09:46:33.793Z,3.89
2024-01-27T09:49:02.989Z,3.85
2024-01-27T09:51:30.804Z,3.86
2024-01-27T09:53:59.288Z,3.85
2024-01-27T09:56:26.526Z,3.84
2024-01-27T09:58:56.596Z,3.86
2024-01-27T10:01:26.748Z,3.80
2024-01-27T10:03:55.111Z,3.79
2024-01-27T10:06:23.169Z,3.80
2024-01-27T10:08:54.709Z,3.83
2024-01-27T10:11:25.065Z,3.84
2024-01-27T10:13:59.315Z,3.87
2024-01-27T10:16:27.379Z,3.88
2024-01-27T10:19:03.982Z,3.91
2024-01-27T10:21:31.751Z,3.94
2024-01-27T10:23:59.152Z,3.97
2024-01-27T10:26:27.549Z,4.03
2024-01-27T10:28:55.631Z,4.05
2024-01-27T10:31:27.881Z,4.10
2024-01-27T10:33:55.998Z,4.13
2024-01-27T10:36:23.468Z,4.15
2024-01-27T10:38:50.694Z,4.18
2024-01-27T10:41:22.810Z,4.19
2024-01-27T10:43:52.631Z,4.25
2024-01-27T10:46:21.744Z,4.29
2024-01-27T10:48:52.816Z,4.31
2024-01-27T10:51:24.121Z,4.35
2024-01-27T10:53:54.839Z,4.42
2024-01-27T10:56:24.444Z,4.49
2024-01-27T10:58:53.883Z,4.57
2024-01-27T11:01:24.127Z,4.63
2024-01-27T11:03:55.483Z,4.70
2024-01-27T11:06:23.670Z,4.77
2024-01-27T11:08:51.714Z,4.84
2024-01-27T11:11:19.676Z,4.92
2024-01-27T11:13:49.469Z,4.98
2024-01-27T11:16:19.523Z,5.03
2024-01-27T11:18:47.332Z,5.10
2024-01-27T11:21:17.201Z,5.15
2024-01-27T11:23:46.101Z,5.20
2024-01-27T11:26:20.488Z,5.27
2024-01-27T11:28:47.496Z,5.32
2024-01-27T11:31:22.919Z,5.38
2024-01-27T11:33:54.338Z,5.42
2024-01-27T11:36:23.772Z,5.48
2024-01-27T11:38:52.865Z,5.55
2024-01-27T11:41:27.479Z,5.58
2024-01-27T11:43:55.093Z,5.59
2024-01-27T11:46:28.190Z,5.61
2024-01-27T11:48:55.905Z,5.63
2024-01-27T11:51:24.890Z,5.68
2024-01-27T11:53:52.332Z,5.70
2024-01-27T11:56:19.386Z,5.72
2024-01-27T11:58:50.134Z,5.74
2024-01-27T12:01:18.084Z,5.79
2024-01-27T12:03:47.238Z,5.85
2024-01-27T12:06:15.731Z,5.90
2024-01-27T12:08:49.438Z,5.96
2024-01-27T12:11:20.788Z,6.00
2024-01-27T12:13:51.067Z,6.06
2024-01-27T12:16:19.113Z,6.12
2024-01-27T12:18:47.644Z,6.21
2024-01-27T12:21:14.729Z,6.27
2024-01-27T12:23:54.960Z,6.32
2024-01-27T12:26:23.522Z,6.34
2024-01-27T12:28:50.513Z,6.37
2024-01-27T12:31:21.654Z,6.39
2024-01-27T12:33:55.420Z,6.43
2024-01-27T12:36:24.040Z,6.45
2024-01-27T12:38:56.355Z,6.45
2024-01-27T12:41:23.553Z,6.46
2024-01-27T12:43:50.668Z,6.48
2024-01-27T12:46:17.910Z,6.51
2024-01-27T12:48:46.736Z,6.52
2024-01-27T12:51:15.404Z,6.53
2024-01-27T12:53:45.197Z,6.58
2024-01-27T12:56:13.182Z,6.59
2024-01-27T12:58:41.039Z,6.64
2024-01-27T13:01:11.085Z,6.70
2024-01-27T13:03:40.254Z,6.77
2024-01-27T13:06:09.510Z,6.88
2024-01-27T13:08:38.874Z,7.00
2024-01-27T13:11:05.902Z,7.23
2024-01-27T13:13:32.911Z,7.37
2024-01-27T13:15:59.986Z,7.41
2024-01-27T13:18:27.131Z,7.45
2024-01-27T13:20:54.823Z,7.46
2024-01-27T13:23:21.965Z,7.45
2024-01-27T13:26:02.507Z,7.47
2024-01-27T13:28:37.468Z,7.46
2024-01-27T13:31:05.935Z,7.45
2024-01-27T13:33:34.169Z,7.45
2024-01-27T13:36:01.506Z,7.41
2024-01-27T13:38:28.868Z,7.38
2024-01-27T13:40:57.319Z,7.33
2024-01-27T13:43:24.278Z,7.30
2024-01-27T13:45:52.579Z,7.29
2024-01-27T13:48:20.193Z,7.26
2024-01-27T13:50:47.412Z,7.25
2024-01-27T13:53:14.386Z,7.23
2024-01-27T13:55:43.604Z,7.22
2024-01-27T13:58:12.415Z,7.20
2024-01-27T14:00:39.851Z,7.17
2024-01-27T14:03:07.104Z,7.13
2024-01-27T14:05:34.195Z,7.08
2024-01-27T14:08:01.252Z,7.04
2024-01-27T14:10:28.470Z,7.02
2024-01-27T14:12:55.789Z,7.00
2024-01-27T14:15:24.598Z,6.99
2024-01-27T14:17:54.578Z,6.95
2024-01-27T14:20:24.051Z,6.88
2024-01-27T14:22:51.096Z,6.85
2024-01-27T14:25:18.181Z,6.82
2024-01-27T14:27:46.529Z,6.77
2024-01-27T14:30:15.828Z,6.75
2024-01-27T14:32:46.249Z,6.72
2024-01-27T14:35:13.623Z,6.69
2024-01-27T14:37:41.223Z,6.64
2024-01-27T14:40:09.654Z,6.61
2024-01-27T14:42:37.623Z,6.59
2024-01-27T14:45:05.525Z,6.56
2024-01-27T14:47:32.574Z,6.55
2024-01-27T14:50:01.173Z,6.53
2024-01-27T14:52:28.252Z,6.52
2024-01-27T14:54:55.389Z,6.49
2024-01-27T14:57:22.369Z,6.51
2024-01-27T14:59:49.461Z,6.47
2024-01-27T15:02:18.670Z,6.45
2024-01-27T15:04:47.122Z,6.44
2024-01-27T15:07:17.304Z,6.43
2024-01-27T15:09:44.513Z,6.44
2024-01-27T15:12:11.865Z,6.45
2024-01-27T15:14:38.908Z,6.47
2024-01-27T15:17:07.913Z,6.46
2024-01-27T15:19:40.614Z,6.46
2024-01-27T15:22:10.129Z,6.41
2024-01-27T15:24:40.710Z,6.42
2024-01-27T15:27:11.843Z,6.42
2024-01-27T15:29:39.521Z,6.42
2024-01-27T15:32:08.330Z,6.39
2024-01-27T15:34:35.430Z,6.37
2024-01-27T15:37:02.554Z,6.37
2024-01-27T15:39:29.584Z,6.35
2024-01-27T15:41:59.440Z,6.35
2024-01-27T15:44:26.464Z,6.34
2024-01-27T15:46:53.493Z,6.33
2024-01-27T15:49:22.205Z,6.31
2024-01-27T15:51:49.280Z,6.32
2024-01-27T15:54:19.244Z,6.34
2024-01-27T15:56:49.259Z,6.34
2024-01-27T15:59:17.721Z,6.34
2024-01-27T16:01:44.706Z,6.33
2024-01-27T16:04:12.611Z,6.33
2024-01-27T16:06:40.647Z,6.33
2024-01-27T16:09:07.804Z,6.33
2024-01-27T16:11:34.869Z,6.30
2024-01-27T16:14:01.845Z,6.25
2024-01-27T16:16:30.890Z,6.22
2024-01-27T16:18:57.967Z,6.15
2024-01-27T16:21:26.205Z,6.17
2024-01-27T16:23:53.709Z,6.13
2024-01-27T16:26:23.639Z,6.12
2024-01-27T16:28:50.770Z,6.12
2024-01-27T16:31:17.747Z,6.13
2024-01-27T16:33:46.495Z,6.11
2024-01-27T16:36:13.654Z,6.07
2024-01-27T16:38:42.854Z,6.02
2024-01-27T16:41:11.206Z,6.00
2024-01-27T16:43:38.187Z,5.97
2024-01-27T16:46:07.104Z,5.96
2024-01-27T16:48:34.245Z,5.95
2024-01-27T16:51:04.779Z,5.93
2024-01-27T16:53:31.928Z,5.92
2024-01-27T16:55:58.984Z,5.88
2024-01-27T16:58:25.931Z,5.83
2024-01-27T17:00:54.008Z,5.80
2024-01-27T17:03:21.155Z,5.77
2024-01-27T17:05:48.714Z,5.70
2024-01-27T17:08:17.089Z,5.60
2024-01-27T17:10:44.034Z,5.55
2024-01-27T17:13:11.036Z,5.50
2024-01-27T17:15:38.928Z,5.43
2024-01-27T17:18:06.671Z,5.37
2024-01-27T17:20:33.705Z,5.30
2024-01-27T17:23:00.658Z,5.26
2024-01-27T17:25:29.318Z,5.20
2024-01-27T17:27:56.507Z,5.17
2024-01-27T17:30:23.546Z,5.15
2024-01-27T17:32:50.845Z,5.12
2024-01-27T17:35:18.430Z,5.07
2024-01-27T17:37:45.477Z,5.06
2024-01-27T17:40:13.511Z,5.05
2024-01-27T17:42:41.973Z,5.03
2024-01-27T17:45:09.998Z,4.95
2024-01-27T17:47:38.131Z,4.88
2024-01-27T17:50:07.100Z,4.83
2024-01-27T17:52:39.881Z,4.78
2024-01-27T17:55:11.494Z,4.71
2024-01-27T17:57:39.184Z,4.65
2024-01-27T18:00:11.323Z,4.63
2024-01-27T18:02:38.599Z,4.62
2024-01-27T18:05:06.361Z,4.57
2024-01-27T18:07:34.643Z,4.50
2024-01-27T18:10:01.825Z,4.46
2024-01-27T18:12:28.888Z,4.40
2024-01-27T18:14:56.014Z,4.33
2024-01-27T18:17:24.885Z,4.29
2024-01-27T18:19:52.017Z,4.22
2024-01-27T18:22:18.987Z,4.14
2024-01-27T18:24:46.114Z,4.05
2024-01-27T18:27:15.312Z,4.01
2024-01-27T18:29:42.431Z,3.98
2024-01-27T18:32:09.479Z,3.98
2024-01-27T18:34:38.592Z,3.98
2024-01-27T18:37:05.716Z,3.96
2024-01-27T18:39:33.049Z,3.92
2024-01-27T18:42:00.138Z,3.90
2024-01-27T18:44:27.339Z,3.87
2024-01-27T18:46:54.351Z,3.84
2024-01-27T18:49:21.493Z,3.78
2024-01-27T18:51:50.629Z,3.74
2024-01-27T18:54:20.133Z,3.76
2024-01-27T18:56:47.399Z,3.76
2024-01-27T18:59:14.369Z,3.78
2024-01-27T19:01:41.395Z,3.79
2024-01-27T19:04:08.727Z,3.81
2024-01-27T19:06:37.452Z,3.80
2024-01-27T19:09:05.985Z,3.80
2024-01-27T19:11:32.955Z,3.84
2024-01-27T19:14:00.294Z,3.84
2024-01-27T19:16:27.285Z,3.84
2024-01-27T19:18:54.507Z,3.81
2024-01-27T19:21:21.728Z,3.80
2024-01-27T19:23:48.965Z,3.80
2024-01-27T19:26:17.448Z,3.81
2024-01-27T19:28:44.452Z,3.79
2024-01-27T19:31:11.466Z,3.77
2024-01-27T19:33:38.825Z,3.77
2024-01-27T19:36:06.716Z,3.74
2024-01-27T19:38:34.109Z,3.73
2024-01-27T19:41:11.435Z,3.69
2024-01-27T19:43:47.447Z,3.61
2024-01-27T19:46:14.914Z,3.61
2024-01-27T19:48:42.648Z,3.57
2024-01-27T19:51:10.044Z,3.57
2024-01-27T19:53:37.215Z,3.57
2024-01-27T19:56:09.496Z,3.56
2024-01-27T19:58:37.039Z,3.56
2024-01-27T20:01:05.825Z,3.58
2024-01-27T20:03:33.104Z,3.57
2024-01-27T20:06:00.450Z,3.57
2024-01-27T20:08:27.564Z,3.56
2024-01-27T20:10:54.577Z,3.56
2024-01-27T20:13:21.642Z,3.54
2024-01-27T20:15:48.912Z,3.51
2024-01-27T20:18:17.561Z,3.48
2024-01-27T20:20:44.628Z,3.48
2024-01-27T20:23:12.421Z,3.44
2024-01-27T20:25:39.427Z,3.40
2024-01-27T20:28:06.981Z,3.40
2024-01-27T20:30:34.886Z,3.39
2024-01-27T20:33:02.392Z,3.37
2024-01-27T20:35:31.081Z,3.37
2024-01-27T20:37:58.583Z,3.36
2024-01-27T20:40:26.012Z,3.35
2024-01-27T20:42:53.080Z,3.30
2024-01-27T20:45:20.167Z,3.23
2024-01-27T20:47:49.101Z,3.21
2024-01-27T20:50:16.873Z,3.25
2024-01-27T20:52:45.357Z,3.28
2024-01-27T20:55:12.402Z,3.28
2024-01-27T20:57:39.418Z,3.25
2024-01-27T21:00:08.566Z,3.24
2024-01-27T21:02:35.599Z,3.24
2024-01-27T21:05:02.592Z,3.23
2024-01-27T21:07:29.672Z,3.25
2024-01-27T21:09:58.145Z,3.26
2024-01-27T21:12:25.252Z,3.26
2024-01-27T21:14:52.281Z,3.27
2024-01-27T21:17:19.386Z,3.32
2024-01-27T21:19:49.759Z,3.35
2024-01-27T21:22:17.757Z,3.38
2024-01-27T21:24:45.122Z,3.41
2024-01-27T21:27:13.555Z,3.42
2024-01-27T21:29:40.609Z,3.42
2024-01-27T21:32:08.065Z,3.36
2024-01-27T21:34:35.308Z,3.37
2024-01-27T21:37:02.408Z,3.39
2024-01-27T21:39:29.517Z,3.39
2024-01-27T21:41:56.502Z,3.39
2024-01-27T21:44:24.898Z,3.40
2024-01-27T21:46:51.841Z,3.34
2024-01-27T21:49:19.327Z,3.23
2024-01-27T21:51:48.644Z,3.16
2024-01-27T21:54:15.805Z,3.11
2024-01-27T21:56:42.836Z,3.09
2024-01-27T21:59:09.985Z,3.09
2024-01-27T22:01:38.776Z,3.08
2024-01-27T22:04:06.067Z,3.04
2024-01-27T22:06:33.188Z,3.03
2024-01-27T22:09:01.012Z,3.04
2024-01-27T22:11:28.276Z,3.04
2024-01-27T22:13:55.502Z,3.03
2024-01-27T22:16:23.620Z,3.05
2024-01-27T22:18:52.158Z,3.06
2024-01-27T22:21:19.480Z,3.07
2024-01-27T22:23:46.500Z,3.09
2024-01-27T22:26:13.524Z,3.09
2024-01-27T22:28:40.469Z,3.12
2024-01-27T22:31:07.921Z,3.14
2024-01-27T22:33:35.152Z,3.15
2024-01-27T22:36:04.517Z,3.18
2024-01-27T22:38:31.497Z,3.22
2024-01-27T22:40:58.713Z,3.27
2024-01-27T22:43:25.664Z,3.28
2024-01-27T22:45:52.629Z,3.26
2024-01-27T22:48:20.139Z,3.25
2024-01-27T22:50:47.421Z,3.20
2024-01-27T22:53:16.736Z,3.19
2024-01-27T22:55:43.698Z,3.22
2024-01-27T22:58:10.697Z,3.26
2024-01-27T23:00:40.476Z,3.31
2024-01-27T23:03:09.339Z,3.34
2024-01-27T23:05:36.792Z,3.33
2024-01-27T23:08:04.327Z,3.35
2024-01-27T23:10:32.976Z,3.35
2024-01-27T23:13:01.549Z,3.34
2024-01-27T23:15:28.897Z,3.37
2024-01-27T23:17:56.169Z,3.36
2024-01-27T23:20:24.464Z,3.33
2024-01-27T23:22:51.444Z,3.24
2024-01-27T23:25:18.642Z,3.21
2024-01-27T23:27:47.145Z,3.23
2024-01-27T23:30:14.345Z,3.21
2024-01-27T23:32:41.465Z,3.16
2024-01-27T23:35:09.201Z,3.14
2024-01-27T23:37:36.476Z,3.09
2024-01-27T23:40:04.690Z,3.00
2024-01-27T23:42:31.824Z,2.97
2024-01-27T23:45:01.466Z,2.96
2024-01-27T23:47:28.781Z,2.96
2024-01-27T23:49:55.901Z,2.92
2024-01-27T23:52:26.136Z,2.91
2024-01-27T23:54:53.706Z,2.92
2024-01-27T23:57:21.000Z,2.98
2024-01-27T23:59:48.471Z,3.03
